Bramble, Montserrat

6:37 AM AST on December 19, 2014 (GMT -0400)
JOHN OSBORNE AP | Change Station
CLOSE
Current Station
Airport
Location: JOHN OSBORNE AP,
Elevation: 551 ft
Nearby Weather Stations

Elev 551 ft 16.79 °N, 62.19 °W | Updated 37 minutes ago

Scattered Clouds
Scattered Clouds
75 °F
Feels Like 75 °F
N
13
Wind Variable Wind from ESE

Today
High -- | Low -- °F
--% Chance of Precip.
Yesterday
High -- | Low -- °F
Precip. -- in
6:31 AM 5:39 PM
Waning Crescent, 8% visible
Pressure 29.92 in
Visibility 6.2 miles
Clouds Few 2000 ft
Scattered Clouds 4000 ft
Dew Point 68 °F
Humidity 78%
Rainfall 0.00 in
Snow Depth Not available.
UV 0 out of 12
Pollen Not available.
Air Quality Not available.
Flu Activity Not available.
METAR TRPG 191000Z 11011KT 9999 FEW020 SCT040 24/20 Q1013

More Conditions Fewer Conditions

Pressure 29.92 in
Visibility 6.2 miles
Clouds Few 2000 ft
Scattered Clouds 4000 ft
Dew Point 68 °F
Humidity 78%
Rainfall 0.00 in
Snow Depth Not available.
UV 0 out of 12
Pollen Not available.
Air Quality Not available.
Flu Activity Not available.
METAR TRPG 191000Z 11011KT 9999 FEW020 SCT040 24/20 Q1013

More Conditions Fewer Conditions

10-Day Weather Forecast

Almanac

Astronomy

Dec. 19, 2014 Rise Set
Actual Time
Civil Twilight
Nautical Twilight
Astronomical Twilight
Moon
Length of Visible Light
Length of Day
Tomorrow will be .
, % of the Moon is Illuminated

Today's Extremes

Country Highs Country Lows

Community

WunderPhotos

Upload Photos

1,778,966 photos uploaded!

WunderBlogs® & News

Nearby

Air Quality

  Air Quality AQ Index Pollutant
Not available.

Snow Depth

Station Depth Elevation

Earthquake Activity

City Distance Mag. Time & Date
Minimum magnitude displayed is 2.5.

Coastal Water Temperatures

Place Temperature

Nearby Weather Stations